createdAt,value
2017-01-14T00:00:10.625Z,996.21
2017-01-14T00:01:22.071Z,996.24
2017-01-14T00:02:33.476Z,996.26
2017-01-14T00:03:44.892Z,996.25
2017-01-14T00:04:56.497Z,996.24
2017-01-14T00:06:07.897Z,996.29
2017-01-14T00:07:19.350Z,996.31
2017-01-14T00:08:30.755Z,996.35
2017-01-14T00:09:42.165Z,996.41
2017-01-14T00:10:53.565Z,996.38
2017-01-14T00:12:04.967Z,996.4
2017-01-14T00:13:16.418Z,996.41
2017-01-14T00:14:27.828Z,996.36
2017-01-14T00:15:39.228Z,996.47
2017-01-14T00:16:50.633Z,996.43
2017-01-14T00:18:02.036Z,996.49
2017-01-14T00:19:13.690Z,996.43
2017-01-14T00:20:25.092Z,996.53
2017-01-14T00:21:36.490Z,996.54
2017-01-14T00:22:47.900Z,996.48
2017-01-14T00:23:59.300Z,996.57
2017-01-14T00:25:10.955Z,996.59
2017-01-14T00:26:22.351Z,996.53
2017-01-14T00:27:33.754Z,996.59
2017-01-14T00:28:45.147Z,996.62
2017-01-14T00:29:56.541Z,996.57
2017-01-14T00:31:07.997Z,996.69
2017-01-14T00:32:19.400Z,996.61
2017-01-14T00:33:30.799Z,996.67
2017-01-14T00:34:42.190Z,996.73
2017-01-14T00:35:53.588Z,996.74
2017-01-14T00:37:05.039Z,996.69
2017-01-14T00:38:16.442Z,996.8
2017-01-14T00:39:27.840Z,996.7
2017-01-14T00:40:39.250Z,996.81
2017-01-14T00:41:50.658Z,996.82
2017-01-14T00:43:02.106Z,996.83
2017-01-14T00:44:13.512Z,996.82
2017-01-14T00:45:24.920Z,996.74
2017-01-14T00:46:36.327Z,996.76
2017-01-14T00:47:47.936Z,996.88
2017-01-14T00:48:59.374Z,996.89
2017-01-14T00:50:10.776Z,996.97
2017-01-14T00:51:22.174Z,996.94
2017-01-14T00:52:33.576Z,996.94
2017-01-14T00:53:44.970Z,996.94
2017-01-14T00:54:56.417Z,997.02
2017-01-14T00:56:07.813Z,996.92
2017-01-14T00:57:19.418Z,996.91
2017-01-14T00:58:30.821Z,997.08
2017-01-14T00:59:42.235Z,997.19
2017-01-14T01:00:53.635Z,997.08
2017-01-14T01:02:05.034Z,997.09
2017-01-14T01:03:16.446Z,997.14
2017-01-14T01:04:27.843Z,997.23
2017-01-14T01:05:39.293Z,997.16
2017-01-14T01:06:50.703Z,997.29
2017-01-14T01:08:02.301Z,997.32
2017-01-14T01:09:13.714Z,997.28
2017-01-14T01:10:25.122Z,997.35
2017-01-14T01:11:36.570Z,997.36
2017-01-14T01:12:47.970Z,997.35
2017-01-14T01:13:59.375Z,997.37
2017-01-14T01:15:10.779Z,997.41
2017-01-14T01:16:22.177Z,997.45
2017-01-14T01:17:33.632Z,997.43
2017-01-14T01:18:45.032Z,997.5
2017-01-14T01:19:56.443Z,997.55
2017-01-14T01:21:07.852Z,997.48
2017-01-14T01:22:19.458Z,997.45
2017-01-14T01:23:30.907Z,997.48
2017-01-14T01:24:42.308Z,997.49
2017-01-14T01:25:53.908Z,997.56
2017-01-14T01:27:05.314Z,997.58
2017-01-14T01:28:16.710Z,997.62
2017-01-14T01:29:28.163Z,997.63
2017-01-14T01:30:39.768Z,997.65
2017-01-14T01:31:51.168Z,997.65
2017-01-14T01:33:02.571Z,997.71
2017-01-14T01:34:14.168Z,997.75
2017-01-14T01:35:25.619Z,997.8
2017-01-14T01:36:37.220Z,997.85
2017-01-14T01:37:48.815Z,997.88
2017-01-14T01:39:00.460Z,997.9
2017-01-14T01:40:11.863Z,997.83
2017-01-14T01:41:23.514Z,997.93
2017-01-14T01:42:34.915Z,997.91
2017-01-14T01:43:46.306Z,997.94
2017-01-14T01:44:57.693Z,997.97
2017-01-14T01:46:09.290Z,997.95
2017-01-14T01:47:20.740Z,997.96
2017-01-14T01:48:32.340Z,997.94
2017-01-14T01:49:43.950Z,998.01
2017-01-14T01:50:55.354Z,998
2017-01-14T01:52:06.763Z,998.08
2017-01-14T01:53:18.211Z,998.04
2017-01-14T01:54:29.808Z,998.06
2017-01-14T01:55:41.214Z,998.09
2017-01-14T01:56:52.618Z,998.16
2017-01-14T01:58:04.246Z,998.17
2017-01-14T01:59:15.651Z,998.11
2017-01-14T02:00:27.047Z,998.2
2017-01-14T02:01:38.647Z,998.26
2017-01-14T02:02:50.048Z,998.19
2017-01-14T02:04:01.703Z,998.36
2017-01-14T02:05:13.098Z,998.23
2017-01-14T02:06:24.494Z,998.37
2017-01-14T02:07:35.894Z,998.33
2017-01-14T02:08:47.297Z,998.36
2017-01-14T02:09:58.742Z,998.39
2017-01-14T02:11:10.145Z,998.44
2017-01-14T02:12:21.549Z,998.39
2017-01-14T02:13:33.152Z,998.4
2017-01-14T02:14:44.558Z,998.34
2017-01-14T02:15:56.011Z,998.46
2017-01-14T02:17:07.406Z,998.47
2017-01-14T02:18:18.799Z,998.53
2017-01-14T02:19:30.208Z,998.55
2017-01-14T02:20:41.618Z,998.48
2017-01-14T02:21:53.074Z,998.62
2017-01-14T02:23:04.467Z,998.59
2017-01-14T02:24:15.864Z,998.58
2017-01-14T02:25:27.267Z,998.68
2017-01-14T02:26:38.681Z,998.73
2017-01-14T02:27:50.124Z,998.64
2017-01-14T02:29:01.531Z,998.67
2017-01-14T02:30:12.924Z,998.72
2017-01-14T02:31:24.525Z,998.79
2017-01-14T02:32:35.925Z,998.75
2017-01-14T02:33:47.371Z,998.77
2017-01-14T02:34:58.978Z,998.88
2017-01-14T02:36:10.374Z,998.82
2017-01-14T02:37:21.770Z,998.98
2017-01-14T02:38:33.177Z,998.88
2017-01-14T02:39:44.627Z,998.95
2017-01-14T02:40:56.048Z,998.91
2017-01-14T02:42:07.450Z,999.06
2017-01-14T02:43:18.850Z,999.1
2017-01-14T02:44:30.240Z,999.05
2017-01-14T02:45:41.687Z,999.09
2017-01-14T02:46:53.085Z,999.09
2017-01-14T02:48:04.485Z,999.1
2017-01-14T02:49:16.087Z,999.12
2017-01-14T02:50:27.484Z,999.19
2017-01-14T02:51:39.312Z,999.25
2017-01-14T02:52:50.903Z,999.03
2017-01-14T02:54:04.613Z,999.2
2017-01-14T02:55:16.217Z,999.18
2017-01-14T02:56:27.614Z,999.17
2017-01-14T02:57:39.056Z,999.25
2017-01-14T02:58:50.456Z,999.24
2017-01-14T03:00:01.851Z,999.29
2017-01-14T03:01:13.250Z,999.21
2017-01-14T03:02:24.849Z,999.36
2017-01-14T03:03:36.297Z,999.25
2017-01-14T03:04:47.701Z,999.22
2017-01-14T03:05:59.098Z,999.36
2017-01-14T03:07:10.501Z,999.28
2017-01-14T03:08:22.303Z,999.34
2017-01-14T03:09:33.774Z,999.41
2017-01-14T03:10:45.180Z,999.39
2017-01-14T03:11:56.576Z,999.4
2017-01-14T03:13:07.990Z,999.4
2017-01-14T03:14:19.418Z,999.38
2017-01-14T03:15:30.863Z,999.49
2017-01-14T03:16:42.261Z,999.54
2017-01-14T03:17:53.660Z,999.4
2017-01-14T03:19:05.063Z,999.59
2017-01-14T03:20:16.467Z,999.47
2017-01-14T03:21:27.916Z,999.57
2017-01-14T03:22:39.320Z,999.55
2017-01-14T03:23:50.718Z,999.6
2017-01-14T03:25:02.123Z,999.62
2017-01-14T03:26:13.517Z,999.63
2017-01-14T03:27:24.972Z,999.63
2017-01-14T03:28:36.367Z,999.64
2017-01-14T03:29:47.775Z,999.65
2017-01-14T03:30:59.178Z,999.74
2017-01-14T03:32:10.584Z,999.66
2017-01-14T03:33:22.038Z,999.72
2017-01-14T03:34:33.438Z,999.75
2017-01-14T03:35:45.038Z,999.78
2017-01-14T03:36:56.644Z,999.78
2017-01-14T03:38:08.241Z,999.86
2017-01-14T03:39:19.690Z,999.86
2017-01-14T03:40:31.089Z,999.9
2017-01-14T03:41:42.692Z,999.9
2017-01-14T03:42:54.083Z,999.91
2017-01-14T03:44:05.483Z,999.83
2017-01-14T03:45:16.934Z,999.88
2017-01-14T03:46:28.334Z,999.97
2017-01-14T03:47:39.736Z,999.93
2017-01-14T03:48:51.163Z,1000
2017-01-14T03:50:02.557Z,999.98
2017-01-14T03:51:14.008Z,1000.03
2017-01-14T03:52:25.606Z,1000.1
2017-01-14T03:53:37.007Z,1000.01
2017-01-14T03:54:48.415Z,1000.06
2017-01-14T03:56:00.012Z,1000.02
2017-01-14T03:57:11.467Z,1000.1
2017-01-14T03:58:22.866Z,1000.09
2017-01-14T03:59:34.263Z,1000.09
2017-01-14T04:00:45.660Z,1000.12
2017-01-14T04:01:57.262Z,1000.14
2017-01-14T04:03:08.715Z,1000.1
2017-01-14T04:04:20.115Z,1000.16
2017-01-14T04:05:31.511Z,1000.06
2017-01-14T04:06:42.914Z,1000.15
2017-01-14T04:07:54.519Z,1000.11
2017-01-14T04:09:05.977Z,1000.18
2017-01-14T04:10:17.780Z,1000.14
2017-01-14T04:11:29.174Z,1000.17
2017-01-14T04:12:40.575Z,1000.21
2017-01-14T04:13:51.981Z,1000.21
2017-01-14T04:15:03.427Z,1000.25
2017-01-14T04:16:14.827Z,1000.27
2017-01-14T04:17:26.427Z,1000.28
2017-01-14T04:18:37.827Z,1000.29
2017-01-14T04:19:49.229Z,1000.34
2017-01-14T04:21:00.836Z,1000.36
2017-01-14T04:22:12.231Z,1000.38
2017-01-14T04:23:23.628Z,1000.42
2017-01-14T04:24:35.033Z,1000.44
2017-01-14T04:25:46.482Z,1000.55
2017-01-14T04:26:57.881Z,1000.5
2017-01-14T04:28:09.290Z,1000.55
2017-01-14T04:29:20.693Z,1000.53
2017-01-14T04:30:32.097Z,1000.57
2017-01-14T04:31:43.541Z,1000.61
2017-01-14T04:32:54.955Z,1000.63
2017-01-14T04:34:06.561Z,1000.65
2017-01-14T04:35:17.964Z,1000.68
2017-01-14T04:36:29.369Z,1000.64
2017-01-14T04:37:40.817Z,1000.69
2017-01-14T04:38:52.215Z,1000.74
2017-01-14T04:40:03.614Z,1000.7
2017-01-14T04:41:15.016Z,1000.78
2017-01-14T04:42:26.418Z,1000.7
2017-01-14T04:43:37.870Z,1000.77
2017-01-14T04:44:49.269Z,1000.73
2017-01-14T04:46:00.667Z,1000.71
2017-01-14T04:47:12.075Z,1000.81
2017-01-14T04:48:23.471Z,1000.85
2017-01-14T04:49:34.914Z,1000.82
2017-01-14T04:50:46.319Z,1000.82
2017-01-14T04:51:57.730Z,1000.82
2017-01-14T04:53:09.136Z,1000.8
2017-01-14T04:54:20.539Z,1000.81
2017-01-14T04:55:31.988Z,1000.81
2017-01-14T04:56:43.385Z,1000.79
2017-01-14T04:57:54.790Z,1000.83
2017-01-14T04:59:06.223Z,1000.87
2017-01-14T05:00:17.825Z,1000.89
2017-01-14T05:01:29.303Z,1000.88
2017-01-14T05:02:40.709Z,1000.93
2017-01-14T05:03:52.110Z,1001
2017-01-14T05:05:03.547Z,1001.06
2017-01-14T05:06:14.947Z,1001.01
2017-01-14T05:07:26.599Z,1001.05
2017-01-14T05:08:38.006Z,1001.08
2017-01-14T05:09:49.414Z,1001.11
2017-01-14T05:11:00.818Z,1001.03
2017-01-14T05:12:12.220Z,1001.13
2017-01-14T05:13:23.899Z,1001.15
2017-01-14T05:14:35.501Z,1001.22
2017-01-14T05:15:46.904Z,1001.34
2017-01-14T05:16:58.315Z,1001.33
2017-01-14T05:18:09.710Z,1001.29
2017-01-14T05:19:21.159Z,1001.34
2017-01-14T05:20:32.558Z,1001.32
2017-01-14T05:21:43.959Z,1001.33
2017-01-14T05:22:55.358Z,1001.38
2017-01-14T05:24:06.756Z,1001.34
2017-01-14T05:25:18.207Z,1001.34
2017-01-14T05:26:29.606Z,1001.36
2017-01-14T05:27:41.011Z,1001.36
2017-01-14T05:28:52.410Z,1001.44
2017-01-14T05:30:03.808Z,1001.45
2017-01-14T05:31:15.271Z,1001.49
2017-01-14T05:32:26.681Z,1001.55
2017-01-14T05:33:38.082Z,1001.59
2017-01-14T05:34:49.501Z,1001.57
2017-01-14T05:36:00.892Z,1001.56
2017-01-14T05:37:12.345Z,1001.63
2017-01-14T05:38:23.939Z,1001.65
2017-01-14T05:39:35.541Z,1001.62
2017-01-14T05:40:46.950Z,1001.68
2017-01-14T05:41:58.379Z,1001.69
2017-01-14T05:43:09.824Z,1001.7
2017-01-14T05:44:21.428Z,1001.67
2017-01-14T05:45:32.824Z,1001.76
2017-01-14T05:46:44.226Z,1001.77
2017-01-14T05:47:55.626Z,1001.81
2017-01-14T05:49:07.077Z,1001.81
2017-01-14T05:50:18.699Z,1001.83
2017-01-14T05:51:30.116Z,1001.85
2017-01-14T05:52:41.546Z,1001.9
2017-01-14T05:53:53.152Z,1001.93
2017-01-14T05:55:04.603Z,1001.96
2017-01-14T05:56:15.999Z,1001.98
2017-01-14T05:57:27.402Z,1002
2017-01-14T05:58:38.799Z,1001.99
2017-01-14T05:59:50.199Z,1002.09
2017-01-14T06:01:01.650Z,1002.07
2017-01-14T06:02:13.044Z,1002.09
2017-01-14T06:03:24.658Z,1002.13
2017-01-14T06:04:36.064Z,1002.16
2017-01-14T06:05:47.665Z,1002.17
2017-01-14T06:06:59.115Z,1002.21
2017-01-14T06:08:10.524Z,1002.19
2017-01-14T06:09:21.922Z,1002.23
2017-01-14T06:10:33.325Z,1002.25
2017-01-14T06:11:44.731Z,1002.28
2017-01-14T06:12:56.181Z,1002.28
2017-01-14T06:14:07.577Z,1002.3
2017-01-14T06:15:18.985Z,1002.35
2017-01-14T06:16:30.395Z,1002.35
2017-01-14T06:17:41.791Z,1002.42
2017-01-14T06:18:53.244Z,1002.41
2017-01-14T06:20:04.642Z,1002.45
2017-01-14T06:21:16.262Z,1002.45
2017-01-14T06:22:27.665Z,1002.49
2017-01-14T06:23:39.063Z,1002.48
2017-01-14T06:24:50.509Z,1002.48
2017-01-14T06:26:01.916Z,1002.57
2017-01-14T06:27:13.541Z,1002.58
2017-01-14T06:28:24.944Z,1002.6
2017-01-14T06:29:36.342Z,1002.6
2017-01-14T06:30:47.749Z,1002.56
2017-01-14T06:31:59.149Z,1002.58
2017-01-14T06:33:10.557Z,1002.66
2017-01-14T06:34:21.975Z,1002.64
2017-01-14T06:35:33.624Z,1002.7
2017-01-14T06:36:45.019Z,1002.64
2017-01-14T06:37:56.418Z,1002.67
2017-01-14T06:39:07.804Z,1002.75
2017-01-14T06:40:19.200Z,1002.73
2017-01-14T06:41:30.650Z,1002.78
2017-01-14T06:42:42.051Z,1002.82
2017-01-14T06:43:53.649Z,1002.8
2017-01-14T06:45:05.039Z,1002.85
2017-01-14T06:46:16.446Z,1002.85
2017-01-14T06:47:27.892Z,1002.89
2017-01-14T06:48:39.288Z,1002.95
2017-01-14T06:49:50.686Z,1002.97
2017-01-14T06:51:02.082Z,1003.01
2017-01-14T06:52:13.471Z,1003.01
2017-01-14T06:53:24.917Z,1003.06
2017-01-14T06:54:36.313Z,1003.06
2017-01-14T06:55:47.711Z,1003.12
2017-01-14T06:56:59.110Z,1003.03
2017-01-14T06:58:10.509Z,1003.17
2017-01-14T06:59:21.958Z,1003.17
2017-01-14T07:00:33.560Z,1003.18
2017-01-14T07:01:44.962Z,1003.19
2017-01-14T07:02:56.364Z,1003.25
2017-01-14T07:04:07.772Z,1003.29
2017-01-14T07:05:19.225Z,1003.28
2017-01-14T07:06:30.628Z,1003.28
2017-01-14T07:07:42.026Z,1003.39
2017-01-14T07:08:53.629Z,1003.34
2017-01-14T07:10:05.035Z,1003.47
2017-01-14T07:11:16.482Z,1003.39
2017-01-14T07:12:27.892Z,1003.44
2017-01-14T07:13:39.297Z,1003.48
2017-01-14T07:14:50.705Z,1003.46
2017-01-14T07:16:02.105Z,1003.5
2017-01-14T07:17:13.757Z,1003.55
2017-01-14T07:18:25.159Z,1003.55
2017-01-14T07:19:36.557Z,1003.61
2017-01-14T07:20:47.962Z,1003.6
2017-01-14T07:21:59.362Z,1003.63
2017-01-14T07:23:11.029Z,1003.69
2017-01-14T07:24:22.429Z,1003.67
2017-01-14T07:25:33.832Z,1003.7
2017-01-14T07:26:45.233Z,1003.67
2017-01-14T07:27:56.629Z,1003.68
2017-01-14T07:29:08.088Z,1003.77
2017-01-14T07:30:19.695Z,1003.77
2017-01-14T07:31:31.099Z,1003.78
2017-01-14T07:32:42.495Z,1003.8
2017-01-14T07:33:53.897Z,1003.82
2017-01-14T07:35:05.350Z,1003.84
2017-01-14T07:36:16.950Z,1003.86
2017-01-14T07:37:28.341Z,1003.87
2017-01-14T07:38:39.744Z,1003.91
2017-01-14T07:39:51.146Z,1003.9
2017-01-14T07:41:02.553Z,1003.91
2017-01-14T07:42:14.139Z,1003.89
2017-01-14T07:43:25.545Z,1003.89
2017-01-14T07:44:36.945Z,1003.93
2017-01-14T07:45:48.401Z,1004.02
2017-01-14T07:46:59.805Z,1004.1
2017-01-14T07:48:11.207Z,1004.06
2017-01-14T07:49:22.809Z,1004.1
2017-01-14T07:50:34.210Z,1004.18
2017-01-14T07:51:45.857Z,1004.17
2017-01-14T07:52:57.259Z,1004.26
2017-01-14T07:54:08.655Z,1004.26
2017-01-14T07:55:20.047Z,1004.29
2017-01-14T07:56:31.452Z,1004.25
2017-01-14T07:57:42.898Z,1004.34
2017-01-14T07:58:54.293Z,1004.29
2017-01-14T08:00:05.716Z,1004.36
2017-01-14T08:01:17.143Z,1004.37
2017-01-14T08:02:28.529Z,1004.38
2017-01-14T08:03:39.972Z,1004.42
2017-01-14T08:04:51.367Z,1004.5
2017-01-14T08:06:02.764Z,1004.48
2017-01-14T08:07:14.161Z,1004.49
2017-01-14T08:08:25.572Z,1004.47
2017-01-14T08:09:37.021Z,1004.53
2017-01-14T08:10:48.413Z,1004.5
2017-01-14T08:11:59.812Z,1004.5
2017-01-14T08:13:11.214Z,1004.57
2017-01-14T08:14:22.609Z,1004.59
2017-01-14T08:15:34.053Z,1004.59
2017-01-14T08:16:45.465Z,1004.6
2017-01-14T08:17:56.862Z,1004.62
2017-01-14T08:19:08.265Z,1004.6
2017-01-14T08:20:19.663Z,1004.63
2017-01-14T08:21:31.110Z,1004.61
2017-01-14T08:22:42.516Z,1004.7
2017-01-14T08:23:54.120Z,1004.7
2017-01-14T08:25:05.512Z,1004.65
2017-01-14T08:26:16.913Z,1004.66
2017-01-14T08:27:28.365Z,1004.71
2017-01-14T08:28:39.768Z,1004.71
2017-01-14T08:29:51.361Z,1004.68
2017-01-14T08:31:02.770Z,1004.72
2017-01-14T08:32:14.369Z,1004.77
2017-01-14T08:33:26.018Z,1004.81
2017-01-14T08:34:37.623Z,1004.81
2017-01-14T08:35:49.030Z,1004.87
2017-01-14T08:37:00.436Z,1004.86
2017-01-14T08:38:11.829Z,1004.91
2017-01-14T08:39:23.279Z,1004.86
2017-01-14T08:40:34.882Z,1004.91
2017-01-14T08:41:46.288Z,1004.95
2017-01-14T08:42:57.885Z,1005.02
2017-01-14T08:44:09.297Z,1005.03
2017-01-14T08:45:20.743Z,1005.03
2017-01-14T08:46:32.342Z,1005.08
2017-01-14T08:47:43.753Z,1005.08
2017-01-14T08:48:55.160Z,1005.09
2017-01-14T08:50:06.588Z,1005.09
2017-01-14T08:51:18.248Z,1005.13
2017-01-14T08:52:29.853Z,1005.08
2017-01-14T08:53:41.464Z,1005.09
2017-01-14T08:54:52.872Z,1005.16
2017-01-14T08:56:04.268Z,1005.16
2017-01-14T08:57:15.722Z,1005.2
2017-01-14T08:58:27.125Z,1005.15
2017-01-14T08:59:38.532Z,1005.21
2017-01-14T09:00:49.940Z,1005.3
2017-01-14T09:02:01.339Z,1005.35
2017-01-14T09:03:12.789Z,1005.32
2017-01-14T09:04:24.197Z,1005.36
2017-01-14T09:05:35.598Z,1005.34
2017-01-14T09:06:47.000Z,1005.41
2017-01-14T09:07:58.603Z,1005.45
2017-01-14T09:09:10.055Z,1005.51
2017-01-14T09:10:21.475Z,1005.5
2017-01-14T09:11:33.082Z,1005.58
2017-01-14T09:12:44.484Z,1005.57
2017-01-14T09:13:55.885Z,1005.54
2017-01-14T09:15:07.331Z,1005.63
2017-01-14T09:16:18.739Z,1005.56
2017-01-14T09:17:30.137Z,1005.61
2017-01-14T09:18:41.533Z,1005.62
2017-01-14T09:19:53.140Z,1005.57
2017-01-14T09:21:04.597Z,1005.61
2017-01-14T09:22:16.207Z,1005.66
2017-01-14T09:23:27.607Z,1005.62
2017-01-14T09:24:39.212Z,1005.67
2017-01-14T09:25:50.621Z,1005.69
2017-01-14T09:27:02.084Z,1005.75
2017-01-14T09:28:13.702Z,1005.67
2017-01-14T09:29:25.117Z,1005.68
2017-01-14T09:30:36.520Z,1005.65
2017-01-14T09:31:47.926Z,1005.71
2017-01-14T09:32:59.380Z,1005.69
2017-01-14T09:34:10.805Z,1005.73
2017-01-14T09:35:22.234Z,1005.74
2017-01-14T09:36:33.845Z,1005.71
2017-01-14T09:37:45.253Z,1005.76
2017-01-14T09:38:56.716Z,1005.77
2017-01-14T09:40:08.117Z,1005.88
2017-01-14T09:41:19.517Z,1005.85
2017-01-14T09:42:30.928Z,1005.93
2017-01-14T09:43:42.340Z,1005.93
2017-01-14T09:44:54.001Z,1005.93
2017-01-14T09:46:05.413Z,1005.91
2017-01-14T09:47:16.832Z,1005.95
2017-01-14T09:48:28.243Z,1005.93
2017-01-14T09:49:39.644Z,1005.98
2017-01-14T09:50:51.053Z,1006
2017-01-14T09:52:02.466Z,1005.98
2017-01-14T09:53:13.859Z,1006.07
2017-01-14T09:54:25.261Z,1006.05
2017-01-14T09:55:36.709Z,1006.11
2017-01-14T09:56:48.315Z,1006.12
2017-01-14T09:57:59.920Z,1006.13
2017-01-14T09:59:11.325Z,1006.12
2017-01-14T10:00:22.722Z,1006.1
2017-01-14T10:01:34.178Z,1006.08
2017-01-14T10:02:45.582Z,1006.1
2017-01-14T10:03:57.215Z,1006.07
2017-01-14T10:05:08.820Z,1006.1
2017-01-14T10:06:20.219Z,1006.14
2017-01-14T10:07:31.667Z,1006.09
2017-01-14T10:08:43.087Z,1006.08
2017-01-14T10:09:54.904Z,1006.12
2017-01-14T10:11:06.534Z,1006.15
2017-01-14T10:12:17.933Z,1006.13
2017-01-14T10:13:29.379Z,1006.13
2017-01-14T10:14:40.774Z,1006.13
2017-01-14T10:15:52.381Z,1006.05
2017-01-14T10:17:03.784Z,1006.17
2017-01-14T10:18:15.186Z,1006.17
2017-01-14T10:19:27.035Z,1006.19
2017-01-14T10:20:38.643Z,1006.14
2017-01-14T10:21:50.044Z,1006.17
2017-01-14T10:23:01.648Z,1006.13
2017-01-14T10:24:13.057Z,1006.14
2017-01-14T10:25:24.517Z,1006.09
2017-01-14T10:26:35.912Z,1006.11
2017-01-14T10:27:47.329Z,1006.11
2017-01-14T10:28:58.735Z,1006.14
2017-01-14T10:30:10.136Z,1006.08
2017-01-14T10:31:21.605Z,1006.17
2017-01-14T10:32:33.207Z,1006.11
2017-01-14T10:33:44.614Z,1006.1
2017-01-14T10:34:56.017Z,1006.14
2017-01-14T10:36:07.412Z,1006.07
2017-01-14T10:37:19.084Z,1006.12
2017-01-14T10:38:30.896Z,1006.08
2017-01-14T10:39:42.309Z,1006.04
2017-01-14T10:40:53.738Z,1006.05
2017-01-14T10:42:05.169Z,1006.06
2017-01-14T10:43:16.632Z,1006.08
2017-01-14T10:44:28.237Z,1006.11
2017-01-14T10:45:39.642Z,1006.09
2017-01-14T10:46:51.050Z,1006.15
2017-01-14T10:48:02.654Z,1006.05
2017-01-14T10:49:14.113Z,1005.99
2017-01-14T10:50:25.526Z,1006.04
2017-01-14T10:51:37.133Z,1006.01
2017-01-14T10:52:48.537Z,1006.02
2017-01-14T10:53:59.948Z,1006.05
2017-01-14T10:55:11.410Z,1006
2017-01-14T10:56:22.819Z,1005.92
2017-01-14T10:57:34.222Z,1006.01
2017-01-14T10:58:45.825Z,1005.98
2017-01-14T10:59:57.224Z,1005.95
2017-01-14T11:01:09.179Z,1005.95
2017-01-14T11:02:20.592Z,1005.96
2017-01-14T11:03:32.007Z,1005.97
2017-01-14T11:04:43.415Z,1005.97
2017-01-14T11:05:54.821Z,1005.94
2017-01-14T11:07:06.286Z,1005.97
2017-01-14T11:08:17.704Z,1006
2017-01-14T11:09:29.114Z,1005.95
2017-01-14T11:10:40.543Z,1005.99
2017-01-14T11:11:51.964Z,1005.93
2017-01-14T11:13:03.644Z,1005.89
2017-01-14T11:14:15.077Z,1005.88
2017-01-14T11:15:26.502Z,1005.9
2017-01-14T11:16:37.907Z,1005.96
2017-01-14T11:17:49.714Z,1006.01
2017-01-14T11:19:01.374Z,1006.02
2017-01-14T11:20:12.785Z,1006.11
2017-01-14T11:21:24.195Z,1006.05
2017-01-14T11:22:35.604Z,1006.11
2017-01-14T11:23:47.013Z,1006.08
2017-01-14T11:24:58.670Z,1006.15
2017-01-14T11:26:10.076Z,1006.06
2017-01-14T11:27:21.693Z,1006.13
2017-01-14T11:28:33.110Z,1006.05
2017-01-14T11:29:44.512Z,1006.06
2017-01-14T11:30:55.930Z,1006.04
2017-01-14T11:32:07.365Z,1005.94
2017-01-14T11:33:18.974Z,1005.99
2017-01-14T11:34:30.382Z,1006
2017-01-14T11:35:41.845Z,1005.93
2017-01-14T11:36:53.249Z,1005.95
2017-01-14T11:38:04.647Z,1006.02
2017-01-14T11:39:16.056Z,1005.92
2017-01-14T11:40:27.468Z,1005.98
2017-01-14T11:41:38.923Z,1005.98
2017-01-14T11:42:50.332Z,1005.92
2017-01-14T11:44:01.748Z,1005.82
2017-01-14T11:45:13.172Z,1005.9
2017-01-14T11:46:24.608Z,1005.86
2017-01-14T11:47:36.267Z,1005.81
2017-01-14T11:48:47.663Z,1005.85
2017-01-14T11:49:59.069Z,1005.78
2017-01-14T11:51:10.476Z,1005.79
2017-01-14T11:52:21.875Z,1005.9
2017-01-14T11:53:33.526Z,1005.82
2017-01-14T11:54:44.923Z,1005.8
2017-01-14T11:55:56.536Z,1005.79
2017-01-14T11:57:07.933Z,1005.84
2017-01-14T11:58:19.333Z,1005.8
2017-01-14T11:59:31.010Z,1005.82
2017-01-14T12:00:42.610Z,1005.8
2017-01-14T12:01:54.009Z,1005.71
2017-01-14T12:03:05.406Z,1005.65
2017-01-14T12:04:16.814Z,1005.61
2017-01-14T12:05:28.272Z,1005.61
2017-01-14T12:06:39.673Z,1005.67
2017-01-14T12:07:51.076Z,1005.61
2017-01-14T12:09:02.483Z,1005.61
2017-01-14T12:10:14.087Z,1005.6
2017-01-14T12:11:25.548Z,1005.54
2017-01-14T12:12:37.145Z,1005.49
2017-01-14T12:13:48.538Z,1005.5
2017-01-14T12:14:59.939Z,1005.45
2017-01-14T12:16:11.353Z,1005.43
2017-01-14T12:17:22.999Z,1005.39
2017-01-14T12:18:34.406Z,1005.35
2017-01-14T12:19:45.832Z,1005.33
2017-01-14T12:20:57.236Z,1005.33
2017-01-14T12:22:08.846Z,1005.37
2017-01-14T12:23:20.316Z,1005.38
2017-01-14T12:24:31.721Z,1005.38
2017-01-14T12:25:43.123Z,1005.33
2017-01-14T12:26:54.539Z,1005.34
2017-01-14T12:28:05.967Z,1005.28
2017-01-14T12:29:17.625Z,1005.31
2017-01-14T12:30:29.028Z,1005.32
2017-01-14T12:31:40.433Z,1005.31
2017-01-14T12:32:51.834Z,1005.32
2017-01-14T12:34:03.239Z,1005.38
2017-01-14T12:35:14.899Z,1005.31
2017-01-14T12:36:26.299Z,1005.29
2017-01-14T12:37:37.705Z,1005.3
2017-01-14T12:38:49.104Z,1005.35
2017-01-14T12:40:00.511Z,1005.37
2017-01-14T12:41:11.979Z,1005.37
2017-01-14T12:42:23.387Z,1005.39
2017-01-14T12:43:34.791Z,1005.36
2017-01-14T12:44:46.202Z,1005.37
2017-01-14T12:45:57.624Z,1005.38
2017-01-14T12:47:09.288Z,1005.33
2017-01-14T12:48:20.896Z,1005.26
2017-01-14T12:49:32.506Z,1005.26
2017-01-14T12:50:44.115Z,1005.21
2017-01-14T12:51:55.519Z,1005.2
2017-01-14T12:53:07.003Z,1005.26
2017-01-14T12:54:18.407Z,1005.26
2017-01-14T12:55:29.802Z,1005.27
2017-01-14T12:56:41.233Z,1005.2
2017-01-14T12:57:52.831Z,1005.22
2017-01-14T12:59:04.282Z,1005.24
2017-01-14T13:00:15.688Z,1005.22
2017-01-14T13:01:27.289Z,1005.2
2017-01-14T13:02:38.692Z,1005.26
2017-01-14T13:03:50.293Z,1005.2
2017-01-14T13:05:01.961Z,1005.26
2017-01-14T13:06:13.368Z,1005.15
2017-01-14T13:07:24.764Z,1005.14
2017-01-14T13:08:36.191Z,1005.15
2017-01-14T13:09:47.802Z,1005.12
2017-01-14T13:10:59.215Z,1005.11
2017-01-14T13:12:10.628Z,1005.1
2017-01-14T13:13:22.034Z,1005.09
2017-01-14T13:14:33.446Z,1005.11
2017-01-14T13:15:45.098Z,1005.08
2017-01-14T13:16:56.503Z,1005.11
2017-01-14T13:18:08.110Z,1005.17
2017-01-14T13:19:19.515Z,1005.13
2017-01-14T13:20:30.917Z,1005.14
2017-01-14T13:21:42.370Z,1005.14
2017-01-14T13:22:53.772Z,1005.13
2017-01-14T13:24:05.581Z,1005.15
2017-01-14T13:25:16.986Z,1005.13
2017-01-14T13:26:28.395Z,1005.16
2017-01-14T13:27:39.851Z,1005.1
2017-01-14T13:28:51.262Z,1005.08
2017-01-14T13:30:02.863Z,1005.06
2017-01-14T13:31:14.273Z,1005.04
2017-01-14T13:32:25.687Z,1005.07
2017-01-14T13:33:37.338Z,1005.03
2017-01-14T13:34:48.736Z,1005.08
2017-01-14T13:36:00.171Z,1005.03
2017-01-14T13:37:11.595Z,1005.05
2017-01-14T13:38:23.000Z,1005.06
2017-01-14T13:39:34.448Z,1005.08
2017-01-14T13:40:46.055Z,1005.09
2017-01-14T13:41:57.461Z,1005.11
2017-01-14T13:43:08.888Z,1005.11
2017-01-14T13:44:20.293Z,1005.14
2017-01-14T13:45:31.738Z,1005.11
2017-01-14T13:46:43.137Z,1005.11
2017-01-14T13:47:54.548Z,1005.14
2017-01-14T13:49:05.984Z,1005.15
2017-01-14T13:50:17.393Z,1005.14
2017-01-14T13:51:28.868Z,1005.13
2017-01-14T13:52:40.273Z,1005.15
2017-01-14T13:53:52.079Z,1005.11
2017-01-14T13:55:03.481Z,1005.11
2017-01-14T13:56:14.881Z,1005.15
2017-01-14T13:57:26.328Z,1005.14
2017-01-14T13:58:37.733Z,1005.14
2017-01-14T13:59:49.138Z,1005.11
2017-01-14T14:01:00.532Z,1005.17
2017-01-14T14:02:12.146Z,1005.14
2017-01-14T14:03:23.605Z,1005.17
2017-01-14T14:04:35.240Z,1005.1
2017-01-14T14:05:46.635Z,1005.07
2017-01-14T14:06:58.035Z,1005.07
2017-01-14T14:08:09.649Z,1005.05
2017-01-14T14:09:21.119Z,1005.1
2017-01-14T14:10:32.732Z,1005.12
2017-01-14T14:11:44.151Z,1005.13
2017-01-14T14:12:55.760Z,1005.09
2017-01-14T14:14:07.161Z,1005.13
2017-01-14T14:15:18.607Z,1005.06
2017-01-14T14:16:30.013Z,1005.13
2017-01-14T14:17:41.408Z,1005.06
2017-01-14T14:18:52.811Z,1005.06
2017-01-14T14:20:04.215Z,1005.05
2017-01-14T14:21:15.674Z,1005.05
2017-01-14T14:22:27.083Z,1005.07
2017-01-14T14:23:38.493Z,1005.05
2017-01-14T14:24:50.108Z,1005.04
2017-01-14T14:26:01.528Z,1005.04
2017-01-14T14:27:12.977Z,1005.02
2017-01-14T14:28:24.596Z,1005.06
2017-01-14T14:29:36.198Z,1005.06
2017-01-14T14:30:47.802Z,1005.02
2017-01-14T14:31:59.200Z,1005.03
2017-01-14T14:33:10.850Z,1005.04
2017-01-14T14:34:22.259Z,1005.01